sensor_id;sensor_type;location;lat;lon;timestamp;P1;durP1;ratioP1;P2;durP2;ratioP2
8353;SDS011;4656;48.090;11.498;2023-07-30T00:01:49;0.10;;;0.10;;
8353;SDS011;4656;48.090;11.498;2023-07-30T00:03:51;0.20;;;0.20;;
8353;SDS011;4656;48.090;11.498;2023-07-30T00:05:55;0.10;;;0.10;;
8353;SDS011;4656;48.090;11.498;2023-07-30T00:07:57;0.10;;;0.10;;
8353;SDS011;4656;48.090;11.498;2023-07-30T00:09:59;0.10;;;0.10;;
8353;SDS011;4656;48.090;11.498;2023-07-30T00:12:01;0.30;;;0.30;;
8353;SDS011;4656;48.090;11.498;2023-07-30T00:14:03;0.10;;;0.10;;
8353;SDS011;4656;48.090;11.498;2023-07-30T00:16:05;0.20;;;0.20;;
8353;SDS011;4656;48.090;11.498;2023-07-30T00:18:08;0.10;;;0.10;;
8353;SDS011;4656;48.090;11.498;2023-07-30T00:20:12;0.10;;;0.10;;
8353;SDS011;4656;48.090;11.498;2023-07-30T00:22:17;0.10;;;0.10;;
8353;SDS011;4656;48.090;11.498;2023-07-30T00:24:19;0.10;;;0.10;;
8353;SDS011;4656;48.090;11.498;2023-07-30T00:26:22;0.10;;;0.10;;
8353;SDS011;4656;48.090;11.498;2023-07-30T00:28:26;0.10;;;0.10;;
8353;SDS011;4656;48.090;11.498;2023-07-30T00:30:29;0.10;;;0.10;;
8353;SDS011;4656;48.090;11.498;2023-07-30T00:32:31;0.20;;;0.20;;
8353;SDS011;4656;48.090;11.498;2023-07-30T00:34:33;0.10;;;0.10;;
8353;SDS011;4656;48.090;11.498;2023-07-30T00:36:34;0.10;;;0.10;;
8353;SDS011;4656;48.090;11.498;2023-07-30T00:38:38;0.10;;;0.10;;
8353;SDS011;4656;48.090;11.498;2023-07-30T00:40:40;0.17;;;0.17;;
8353;SDS011;4656;48.090;11.498;2023-07-30T00:42:43;0.15;;;0.15;;
8353;SDS011;4656;48.090;11.498;2023-07-30T00:44:45;0.10;;;0.10;;
8353;SDS011;4656;48.090;11.498;2023-07-30T00:46:46;0.10;;;0.10;;
8353;SDS011;4656;48.090;11.498;2023-07-30T00:48:48;0.10;;;0.10;;
8353;SDS011;4656;48.090;11.498;2023-07-30T00:50:51;0.05;;;0.05;;
8353;SDS011;4656;48.090;11.498;2023-07-30T00:52:54;0.10;;;0.10;;
8353;SDS011;4656;48.090;11.498;2023-07-30T00:54:56;0.10;;;0.10;;
8353;SDS011;4656;48.090;11.498;2023-07-30T00:56:59;0.20;;;0.20;;
8353;SDS011;4656;48.090;11.498;2023-07-30T00:59:01;0.28;;;0.28;;
8353;SDS011;4656;48.090;11.498;2023-07-30T01:01:04;0.10;;;0.10;;
8353;SDS011;4656;48.090;11.498;2023-07-30T01:03:06;0.10;;;0.10;;
8353;SDS011;4656;48.090;11.498;2023-07-30T01:05:08;0.20;;;0.20;;
8353;SDS011;4656;48.090;11.498;2023-07-30T01:07:10;0.10;;;0.10;;
8353;SDS011;4656;48.090;11.498;2023-07-30T01:09:11;0.20;;;0.20;;
8353;SDS011;4656;48.090;11.498;2023-07-30T01:11:15;0.10;;;0.10;;
8353;SDS011;4656;48.090;11.498;2023-07-30T01:13:18;0.20;;;0.20;;
8353;SDS011;4656;48.090;11.498;2023-07-30T01:15:20;0.10;;;0.10;;
8353;SDS011;4656;48.090;11.498;2023-07-30T01:17:21;0.27;;;0.27;;
8353;SDS011;4656;48.090;11.498;2023-07-30T01:19:24;0.10;;;0.10;;
8353;SDS011;4656;48.090;11.498;2023-07-30T01:21:27;0.10;;;0.10;;
8353;SDS011;4656;48.090;11.498;2023-07-30T01:23:30;0.90;;;0.50;;
8353;SDS011;4656;48.090;11.498;2023-07-30T01:25:33;0.20;;;0.20;;
8353;SDS011;4656;48.090;11.498;2023-07-30T01:27:39;0.20;;;0.20;;
8353;SDS011;4656;48.090;11.498;2023-07-30T01:29:42;0.20;;;0.20;;
8353;SDS011;4656;48.090;11.498;2023-07-30T01:31:45;0.10;;;0.10;;
8353;SDS011;4656;48.090;11.498;2023-07-30T01:33:48;0.10;;;0.10;;
8353;SDS011;4656;48.090;11.498;2023-07-30T01:35:52;0.20;;;0.20;;
8353;SDS011;4656;48.090;11.498;2023-07-30T01:37:56;0.13;;;0.13;;
8353;SDS011;4656;48.090;11.498;2023-07-30T01:39:59;0.20;;;0.20;;
8353;SDS011;4656;48.090;11.498;2023-07-30T01:42:01;0.20;;;0.20;;
8353;SDS011;4656;48.090;11.498;2023-07-30T01:44:04;0.20;;;0.20;;
8353;SDS011;4656;48.090;11.498;2023-07-30T01:46:06;0.32;;;0.32;;
8353;SDS011;4656;48.090;11.498;2023-07-30T01:48:08;0.10;;;0.10;;
8353;SDS011;4656;48.090;11.498;2023-07-30T01:50:10;0.10;;;0.10;;
8353;SDS011;4656;48.090;11.498;2023-07-30T01:52:11;0.10;;;0.10;;
8353;SDS011;4656;48.090;11.498;2023-07-30T01:54:15;0.20;;;0.20;;
8353;SDS011;4656;48.090;11.498;2023-07-30T01:56:17;0.20;;;0.20;;
8353;SDS011;4656;48.090;11.498;2023-07-30T01:58:19;0.10;;;0.10;;
8353;SDS011;4656;48.090;11.498;2023-07-30T02:00:22;0.13;;;0.13;;
8353;SDS011;4656;48.090;11.498;2023-07-30T02:02:24;0.15;;;0.15;;
8353;SDS011;4656;48.090;11.498;2023-07-30T02:04:26;0.30;;;0.30;;
8353;SDS011;4656;48.090;11.498;2023-07-30T02:06:28;0.10;;;0.10;;
8353;SDS011;4656;48.090;11.498;2023-07-30T02:08:30;0.15;;;0.15;;
8353;SDS011;4656;48.090;11.498;2023-07-30T02:10:34;0.10;;;0.10;;
8353;SDS011;4656;48.090;11.498;2023-07-30T02:12:36;0.20;;;0.20;;
8353;SDS011;4656;48.090;11.498;2023-07-30T02:14:37;0.38;;;0.38;;
8353;SDS011;4656;48.090;11.498;2023-07-30T02:16:39;0.17;;;0.17;;
8353;SDS011;4656;48.090;11.498;2023-07-30T02:18:42;0.00;;;0.00;;
8353;SDS011;4656;48.090;11.498;2023-07-30T02:20:44;0.10;;;0.10;;
8353;SDS011;4656;48.090;11.498;2023-07-30T02:22:46;0.30;;;0.30;;
8353;SDS011;4656;48.090;11.498;2023-07-30T02:24:48;0.50;;;0.50;;
8353;SDS011;4656;48.090;11.498;2023-07-30T02:26:51;0.10;;;0.10;;
8353;SDS011;4656;48.090;11.498;2023-07-30T02:28:53;0.10;;;0.10;;
8353;SDS011;4656;48.090;11.498;2023-07-30T02:30:55;0.13;;;0.13;;
8353;SDS011;4656;48.090;11.498;2023-07-30T02:32:57;0.10;;;0.10;;
8353;SDS011;4656;48.090;11.498;2023-07-30T02:35:00;0.20;;;0.20;;
8353;SDS011;4656;48.090;11.498;2023-07-30T02:37:02;0.10;;;0.10;;
8353;SDS011;4656;48.090;11.498;2023-07-30T02:39:04;0.20;;;0.20;;
8353;SDS011;4656;48.090;11.498;2023-07-30T02:41:05;0.15;;;0.15;;
8353;SDS011;4656;48.090;11.498;2023-07-30T02:43:09;0.13;;;0.13;;
8353;SDS011;4656;48.090;11.498;2023-07-30T02:45:11;0.08;;;0.08;;
8353;SDS011;4656;48.090;11.498;2023-07-30T02:47:13;0.10;;;0.10;;
8353;SDS011;4656;48.090;11.498;2023-07-30T02:49:15;0.70;;;0.25;;
8353;SDS011;4656;48.090;11.498;2023-07-30T02:51:17;1.00;;;0.20;;
8353;SDS011;4656;48.090;11.498;2023-07-30T02:53:20;0.28;;;0.28;;
8353;SDS011;4656;48.090;11.498;2023-07-30T02:55:22;0.20;;;0.20;;
8353;SDS011;4656;48.090;11.498;2023-07-30T02:57:24;0.17;;;0.17;;
8353;SDS011;4656;48.090;11.498;2023-07-30T02:59:28;0.13;;;0.13;;
8353;SDS011;4656;48.090;11.498;2023-07-30T03:01:30;0.22;;;0.22;;
8353;SDS011;4656;48.090;11.498;2023-07-30T03:03:32;0.30;;;0.30;;
8353;SDS011;4656;48.090;11.498;2023-07-30T03:05:34;0.15;;;0.15;;
8353;SDS011;4656;48.090;11.498;2023-07-30T03:07:36;0.10;;;0.10;;
8353;SDS011;4656;48.090;11.498;2023-07-30T03:09:38;0.20;;;0.20;;
8353;SDS011;4656;48.090;11.498;2023-07-30T03:11:42;0.10;;;0.10;;
8353;SDS011;4656;48.090;11.498;2023-07-30T03:13:44;0.30;;;0.30;;
8353;SDS011;4656;48.090;11.498;2023-07-30T03:15:47;0.20;;;0.20;;
8353;SDS011;4656;48.090;11.498;2023-07-30T03:17:50;0.10;;;0.10;;
8353;SDS011;4656;48.090;11.498;2023-07-30T03:19:52;1.80;;;0.17;;
8353;SDS011;4656;48.090;11.498;2023-07-30T03:21:54;0.20;;;0.20;;
8353;SDS011;4656;48.090;11.498;2023-07-30T03:23:55;0.10;;;0.10;;
8353;SDS011;4656;48.090;11.498;2023-07-30T03:25:57;0.17;;;0.17;;
8353;SDS011;4656;48.090;11.498;2023-07-30T03:28:00;0.30;;;0.20;;
8353;SDS011;4656;48.090;11.498;2023-07-30T03:30:03;0.10;;;0.10;;
8353;SDS011;4656;48.090;11.498;2023-07-30T03:32:07;0.10;;;0.10;;
8353;SDS011;4656;48.090;11.498;2023-07-30T03:34:09;0.35;;;0.35;;
8353;SDS011;4656;48.090;11.498;2023-07-30T03:36:12;0.20;;;0.20;;
8353;SDS011;4656;48.090;11.498;2023-07-30T03:38:14;0.30;;;0.30;;
8353;SDS011;4656;48.090;11.498;2023-07-30T03:40:16;0.20;;;0.20;;
8353;SDS011;4656;48.090;11.498;2023-07-30T03:42:18;0.20;;;0.20;;
8353;SDS011;4656;48.090;11.498;2023-07-30T03:44:21;2.10;;;0.70;;
8353;SDS011;4656;48.090;11.498;2023-07-30T03:46:23;0.28;;;0.28;;
8353;SDS011;4656;48.090;11.498;2023-07-30T03:48:26;0.20;;;0.20;;
8353;SDS011;4656;48.090;11.498;2023-07-30T03:50:29;0.10;;;0.10;;
8353;SDS011;4656;48.090;11.498;2023-07-30T03:52:31;0.10;;;0.10;;
8353;SDS011;4656;48.090;11.498;2023-07-30T03:54:33;0.20;;;0.20;;
8353;SDS011;4656;48.090;11.498;2023-07-30T03:56:35;0.90;;;0.65;;
8353;SDS011;4656;48.090;11.498;2023-07-30T03:58:37;0.10;;;0.10;;
8353;SDS011;4656;48.090;11.498;2023-07-30T04:00:40;0.30;;;0.30;;
8353;SDS011;4656;48.090;11.498;2023-07-30T04:02:41;0.30;;;0.30;;
8353;SDS011;4656;48.090;11.498;2023-07-30T04:04:44;0.45;;;0.45;;
8353;SDS011;4656;48.090;11.498;2023-07-30T04:06:49;0.10;;;0.10;;
8353;SDS011;4656;48.090;11.498;2023-07-30T04:08:51;0.20;;;0.20;;
8353;SDS011;4656;48.090;11.498;2023-07-30T04:10:53;0.20;;;0.20;;
8353;SDS011;4656;48.090;11.498;2023-07-30T04:12:55;0.20;;;0.20;;
8353;SDS011;4656;48.090;11.498;2023-07-30T04:14:57;0.10;;;0.10;;
8353;SDS011;4656;48.090;11.498;2023-07-30T04:16:59;0.70;;;0.70;;
8353;SDS011;4656;48.090;11.498;2023-07-30T04:19:00;0.85;;;0.85;;
8353;SDS011;4656;48.090;11.498;2023-07-30T04:21:04;0.47;;;0.30;;
8353;SDS011;4656;48.090;11.498;2023-07-30T04:23:06;12.30;;;0.60;;
8353;SDS011;4656;48.090;11.498;2023-07-30T04:25:08;0.20;;;0.20;;
8353;SDS011;4656;48.090;11.498;2023-07-30T04:27:11;0.10;;;0.10;;
8353;SDS011;4656;48.090;11.498;2023-07-30T04:29:13;0.30;;;0.30;;
8353;SDS011;4656;48.090;11.498;2023-07-30T04:31:16;0.28;;;0.28;;
8353;SDS011;4656;48.090;11.498;2023-07-30T04:33:18;1.20;;;0.30;;
8353;SDS011;4656;48.090;11.498;2023-07-30T04:35:20;0.70;;;0.70;;
8353;SDS011;4656;48.090;11.498;2023-07-30T04:37:24;0.70;;;0.50;;
8353;SDS011;4656;48.090;11.498;2023-07-30T04:39:26;0.20;;;0.20;;
8353;SDS011;4656;48.090;11.498;2023-07-30T04:41:28;0.10;;;0.10;;
8353;SDS011;4656;48.090;11.498;2023-07-30T04:43:30;0.40;;;0.40;;
8353;SDS011;4656;48.090;11.498;2023-07-30T04:45:32;0.20;;;0.20;;
8353;SDS011;4656;48.090;11.498;2023-07-30T04:47:34;0.10;;;0.10;;
8353;SDS011;4656;48.090;11.498;2023-07-30T04:49:36;0.10;;;0.10;;
8353;SDS011;4656;48.090;11.498;2023-07-30T04:51:40;1.30;;;0.20;;
8353;SDS011;4656;48.090;11.498;2023-07-30T04:53:44;0.10;;;0.10;;
8353;SDS011;4656;48.090;11.498;2023-07-30T04:55:46;0.20;;;0.20;;
8353;SDS011;4656;48.090;11.498;2023-07-30T04:57:48;0.10;;;0.10;;
8353;SDS011;4656;48.090;11.498;2023-07-30T04:59:50;0.20;;;0.20;;
8353;SDS011;4656;48.090;11.498;2023-07-30T05:01:52;0.10;;;0.10;;
8353;SDS011;4656;48.090;11.498;2023-07-30T05:03:55;0.10;;;0.10;;
8353;SDS011;4656;48.090;11.498;2023-07-30T05:05:57;0.27;;;0.27;;
8353;SDS011;4656;48.090;11.498;2023-07-30T05:07:59;0.10;;;0.10;;
8353;SDS011;4656;48.090;11.498;2023-07-30T05:10:03;0.35;;;0.35;;
8353;SDS011;4656;48.090;11.498;2023-07-30T05:12:06;0.25;;;0.25;;
8353;SDS011;4656;48.090;11.498;2023-07-30T05:14:09;0.10;;;0.10;;
8353;SDS011;4656;48.090;11.498;2023-07-30T05:16:11;0.40;;;0.20;;
8353;SDS011;4656;48.090;11.498;2023-07-30T05:18:13;0.20;;;0.20;;
8353;SDS011;4656;48.090;11.498;2023-07-30T05:20:15;0.30;;;0.30;;
8353;SDS011;4656;48.090;11.498;2023-07-30T05:22:17;0.10;;;0.10;;
8353;SDS011;4656;48.090;11.498;2023-07-30T05:24:19;0.30;;;0.30;;
8353;SDS011;4656;48.090;11.498;2023-07-30T05:26:23;0.10;;;0.10;;
8353;SDS011;4656;48.090;11.498;2023-07-30T05:28:25;0.22;;;0.22;;
8353;SDS011;4656;48.090;11.498;2023-07-30T05:30:27;0.10;;;0.10;;
8353;SDS011;4656;48.090;11.498;2023-07-30T05:32:29;0.10;;;0.10;;
8353;SDS011;4656;48.090;11.498;2023-07-30T05:34:31;0.60;;;0.20;;
8353;SDS011;4656;48.090;11.498;2023-07-30T05:36:33;0.20;;;0.20;;
8353;SDS011;4656;48.090;11.498;2023-07-30T05:38:36;0.10;;;0.10;;
8353;SDS011;4656;48.090;11.498;2023-07-30T05:40:38;0.10;;;0.10;;
8353;SDS011;4656;48.090;11.498;2023-07-30T05:42:41;0.10;;;0.10;;
8353;SDS011;4656;48.090;11.498;2023-07-30T05:44:43;0.10;;;0.10;;
8353;SDS011;4656;48.090;11.498;2023-07-30T05:46:45;0.50;;;0.40;;
8353;SDS011;4656;48.090;11.498;2023-07-30T05:48:48;0.20;;;0.20;;
8353;SDS011;4656;48.090;11.498;2023-07-30T05:50:50;0.20;;;0.20;;
8353;SDS011;4656;48.090;11.498;2023-07-30T05:52:52;0.20;;;0.20;;
8353;SDS011;4656;48.090;11.498;2023-07-30T05:54:54;0.15;;;0.15;;
8353;SDS011;4656;48.090;11.498;2023-07-30T05:56:56;0.30;;;0.30;;
8353;SDS011;4656;48.090;11.498;2023-07-30T05:59:00;0.45;;;0.38;;
8353;SDS011;4656;48.090;11.498;2023-07-30T06:01:02;0.20;;;0.20;;
8353;SDS011;4656;48.090;11.498;2023-07-30T06:03:04;0.20;;;0.20;;
8353;SDS011;4656;48.090;11.498;2023-07-30T06:05:08;0.20;;;0.20;;
8353;SDS011;4656;48.090;11.498;2023-07-30T06:07:10;0.20;;;0.20;;
8353;SDS011;4656;48.090;11.498;2023-07-30T06:09:13;0.20;;;0.20;;
8353;SDS011;4656;48.090;11.498;2023-07-30T06:11:15;0.10;;;0.10;;
8353;SDS011;4656;48.090;11.498;2023-07-30T06:13:17;0.10;;;0.10;;
8353;SDS011;4656;48.090;11.498;2023-07-30T06:15:20;0.10;;;0.10;;
8353;SDS011;4656;48.090;11.498;2023-07-30T06:17:23;0.20;;;0.20;;
8353;SDS011;4656;48.090;11.498;2023-07-30T06:19:25;0.43;;;0.43;;
8353;SDS011;4656;48.090;11.498;2023-07-30T06:21:27;0.10;;;0.10;;
8353;SDS011;4656;48.090;11.498;2023-07-30T06:23:29;0.10;;;0.10;;
8353;SDS011;4656;48.090;11.498;2023-07-30T06:25:31;0.10;;;0.10;;
8353;SDS011;4656;48.090;11.498;2023-07-30T06:27:33;0.10;;;0.10;;
8353;SDS011;4656;48.090;11.498;2023-07-30T06:29:36;0.10;;;0.10;;
8353;SDS011;4656;48.090;11.498;2023-07-30T06:31:39;0.10;;;0.10;;
8353;SDS011;4656;48.090;11.498;2023-07-30T06:33:41;0.10;;;0.10;;
8353;SDS011;4656;48.090;11.498;2023-07-30T06:35:43;0.30;;;0.20;;
8353;SDS011;4656;48.090;11.498;2023-07-30T06:37:45;0.30;;;0.28;;
8353;SDS011;4656;48.090;11.498;2023-07-30T06:39:48;0.10;;;0.10;;
8353;SDS011;4656;48.090;11.498;2023-07-30T06:41:50;0.10;;;0.10;;
8353;SDS011;4656;48.090;11.498;2023-07-30T06:43:52;0.13;;;0.13;;
8353;SDS011;4656;48.090;11.498;2023-07-30T06:45:54;0.20;;;0.20;;
8353;SDS011;4656;48.090;11.498;2023-07-30T06:47:57;0.10;;;0.10;;
8353;SDS011;4656;48.090;11.498;2023-07-30T06:49:59;0.10;;;0.10;;
8353;SDS011;4656;48.090;11.498;2023-07-30T06:52:03;0.28;;;0.28;;
8353;SDS011;4656;48.090;11.498;2023-07-30T06:54:05;0.20;;;0.20;;
8353;SDS011;4656;48.090;11.498;2023-07-30T06:56:07;0.10;;;0.10;;
8353;SDS011;4656;48.090;11.498;2023-07-30T06:58:09;0.10;;;0.10;;
8353;SDS011;4656;48.090;11.498;2023-07-30T07:00:12;0.10;;;0.10;;
8353;SDS011;4656;48.090;11.498;2023-07-30T07:02:19;0.10;;;0.10;;
8353;SDS011;4656;48.090;11.498;2023-07-30T07:04:22;0.30;;;0.30;;
8353;SDS011;4656;48.090;11.498;2023-07-30T07:06:24;0.10;;;0.10;;
8353;SDS011;4656;48.090;11.498;2023-07-30T07:08:26;1.45;;;1.35;;
8353;SDS011;4656;48.090;11.498;2023-07-30T07:10:28;1.60;;;1.50;;
8353;SDS011;4656;48.090;11.498;2023-07-30T07:12:31;1.60;;;1.50;;
8353;SDS011;4656;48.090;11.498;2023-07-30T07:14:33;1.73;;;1.63;;
8353;SDS011;4656;48.090;11.498;2023-07-30T07:16:35;1.40;;;1.30;;
8353;SDS011;4656;48.090;11.498;2023-07-30T07:18:37;1.52;;;1.42;;
8353;SDS011;4656;48.090;11.498;2023-07-30T07:20:40;1.20;;;1.10;;
8353;SDS011;4656;48.090;11.498;2023-07-30T07:22:42;1.60;;;1.50;;
8353;SDS011;4656;48.090;11.498;2023-07-30T07:24:45;1.80;;;1.55;;
8353;SDS011;4656;48.090;11.498;2023-07-30T07:26:46;1.70;;;1.52;;
8353;SDS011;4656;48.090;11.498;2023-07-30T07:28:48;2.88;;;1.60;;
8353;SDS011;4656;48.090;11.498;2023-07-30T07:30:50;1.75;;;1.40;;
8353;SDS011;4656;48.090;11.498;2023-07-30T07:32:52;1.98;;;1.50;;
8353;SDS011;4656;48.090;11.498;2023-07-30T07:34:55;1.60;;;1.50;;
8353;SDS011;4656;48.090;11.498;2023-07-30T07:36:59;1.60;;;1.50;;
8353;SDS011;4656;48.090;11.498;2023-07-30T07:39:01;3.47;;;1.48;;
8353;SDS011;4656;48.090;11.498;2023-07-30T07:41:03;1.40;;;1.30;;
8353;SDS011;4656;48.090;11.498;2023-07-30T07:43:05;1.60;;;1.50;;
8353;SDS011;4656;48.090;11.498;2023-07-30T07:45:07;1.60;;;1.50;;
8353;SDS011;4656;48.090;11.498;2023-07-30T07:47:09;1.60;;;1.50;;
8353;SDS011;4656;48.090;11.498;2023-07-30T07:49:12;1.65;;;1.45;;
8353;SDS011;4656;48.090;11.498;2023-07-30T07:51:14;1.60;;;1.50;;
8353;SDS011;4656;48.090;11.498;2023-07-30T07:53:17;2.90;;;1.70;;
8353;SDS011;4656;48.090;11.498;2023-07-30T07:55:19;1.63;;;1.52;;
8353;SDS011;4656;48.090;11.498;2023-07-30T07:57:21;1.52;;;1.42;;
8353;SDS011;4656;48.090;11.498;2023-07-30T07:59:24;1.50;;;1.30;;
8353;SDS011;4656;48.090;11.498;2023-07-30T08:01:27;1.70;;;1.42;;
8353;SDS011;4656;48.090;11.498;2023-07-30T08:03:29;1.50;;;1.40;;
8353;SDS011;4656;48.090;11.498;2023-07-30T08:05:31;1.48;;;1.35;;
8353;SDS011;4656;48.090;11.498;2023-07-30T08:07:34;1.75;;;1.58;;
8353;SDS011;4656;48.090;11.498;2023-07-30T08:09:36;1.40;;;1.30;;
8353;SDS011;4656;48.090;11.498;2023-07-30T08:11:38;1.63;;;1.52;;
8353;SDS011;4656;48.090;11.498;2023-07-30T08:13:40;2.08;;;1.33;;
8353;SDS011;4656;48.090;11.498;2023-07-30T08:15:43;1.50;;;1.40;;
8353;SDS011;4656;48.090;11.498;2023-07-30T08:17:44;2.65;;;1.73;;
8353;SDS011;4656;48.090;11.498;2023-07-30T08:19:46;1.50;;;1.40;;
8353;SDS011;4656;48.090;11.498;2023-07-30T08:21:47;1.92;;;1.63;;
8353;SDS011;4656;48.090;11.498;2023-07-30T08:23:49;1.88;;;1.58;;
8353;SDS011;4656;48.090;11.498;2023-07-30T08:25:53;1.35;;;1.25;;
8353;SDS011;4656;48.090;11.498;2023-07-30T08:27:55;1.90;;;1.30;;
8353;SDS011;4656;48.090;11.498;2023-07-30T08:29:58;1.70;;;1.40;;
8353;SDS011;4656;48.090;11.498;2023-07-30T08:32:00;2.38;;;1.30;;
8353;SDS011;4656;48.090;11.498;2023-07-30T08:34:02;2.20;;;1.50;;
8353;SDS011;4656;48.090;11.498;2023-07-30T08:36:04;1.40;;;1.30;;
8353;SDS011;4656;48.090;11.498;2023-07-30T08:38:06;1.48;;;1.38;;
8353;SDS011;4656;48.090;11.498;2023-07-30T08:40:08;1.58;;;1.48;;
8353;SDS011;4656;48.090;11.498;2023-07-30T08:42:11;1.20;;;1.15;;
8353;SDS011;4656;48.090;11.498;2023-07-30T08:44:13;1.63;;;1.52;;
8353;SDS011;4656;48.090;11.498;2023-07-30T08:46:16;2.08;;;1.70;;
8353;SDS011;4656;48.090;11.498;2023-07-30T08:48:17;1.40;;;1.30;;
8353;SDS011;4656;48.090;11.498;2023-07-30T08:50:19;1.60;;;1.40;;
8353;SDS011;4656;48.090;11.498;2023-07-30T08:52:21;1.45;;;1.35;;
8353;SDS011;4656;48.090;11.498;2023-07-30T08:54:24;1.50;;;1.40;;
8353;SDS011;4656;48.090;11.498;2023-07-30T08:56:27;1.40;;;1.30;;
8353;SDS011;4656;48.090;11.498;2023-07-30T08:58:31;1.48;;;1.38;;
8353;SDS011;4656;48.090;11.498;2023-07-30T09:00:36;1.83;;;1.55;;
8353;SDS011;4656;48.090;11.498;2023-07-30T09:02:39;1.77;;;1.60;;
8353;SDS011;4656;48.090;11.498;2023-07-30T09:04:45;1.70;;;1.50;;
8353;SDS011;4656;48.090;11.498;2023-07-30T09:06:49;2.63;;;1.27;;
8353;SDS011;4656;48.090;11.498;2023-07-30T09:08:51;2.00;;;1.47;;
8353;SDS011;4656;48.090;11.498;2023-07-30T09:10:53;1.80;;;1.47;;
8353;SDS011;4656;48.090;11.498;2023-07-30T09:12:56;2.50;;;1.33;;
8353;SDS011;4656;48.090;11.498;2023-07-30T09:15:00;1.40;;;1.30;;
8353;SDS011;4656;48.090;11.498;2023-07-30T09:17:04;1.10;;;1.10;;
8353;SDS011;4656;48.090;11.498;2023-07-30T09:19:06;1.48;;;1.38;;
8353;SDS011;4656;48.090;11.498;2023-07-30T09:21:10;1.65;;;1.52;;
8353;SDS011;4656;48.090;11.498;2023-07-30T09:23:13;1.60;;;1.38;;
8353;SDS011;4656;48.090;11.498;2023-07-30T09:25:17;3.00;;;1.60;;
8353;SDS011;4656;48.090;11.498;2023-07-30T09:27:21;1.67;;;1.58;;
8353;SDS011;4656;48.090;11.498;2023-07-30T09:29:25;1.95;;;1.40;;
8353;SDS011;4656;48.090;11.498;2023-07-30T09:31:29;1.60;;;1.50;;
8353;SDS011;4656;48.090;11.498;2023-07-30T09:33:31;1.60;;;1.42;;
8353;SDS011;4656;48.090;11.498;2023-07-30T09:35:34;1.35;;;1.25;;
8353;SDS011;4656;48.090;11.498;2023-07-30T09:37:37;1.48;;;1.38;;
8353;SDS011;4656;48.090;11.498;2023-07-30T09:39:40;1.65;;;1.55;;
8353;SDS011;4656;48.090;11.498;2023-07-30T09:41:42;1.98;;;1.38;;
8353;SDS011;4656;48.090;11.498;2023-07-30T09:43:44;1.40;;;1.30;;
8353;SDS011;4656;48.090;11.498;2023-07-30T09:45:47;1.52;;;1.42;;
8353;SDS011;4656;48.090;11.498;2023-07-30T09:47:51;1.77;;;1.23;;
8353;SDS011;4656;48.090;11.498;2023-07-30T09:49:53;1.70;;;1.57;;
8353;SDS011;4656;48.090;11.498;2023-07-30T09:51:56;1.40;;;1.30;;
8353;SDS011;4656;48.090;11.498;2023-07-30T09:53:57;2.08;;;1.55;;
8353;SDS011;4656;48.090;11.498;2023-07-30T09:56:00;1.70;;;1.40;;
8353;SDS011;4656;48.090;11.498;2023-07-30T09:58:02;1.50;;;1.40;;
8353;SDS011;4656;48.090;11.498;2023-07-30T10:00:06;1.20;;;1.10;;
8353;SDS011;4656;48.090;11.498;2023-07-30T10:02:09;2.17;;;1.20;;
8353;SDS011;4656;48.090;11.498;2023-07-30T10:04:13;2.10;;;1.33;;
8353;SDS011;4656;48.090;11.498;2023-07-30T10:06:15;1.70;;;1.60;;
8353;SDS011;4656;48.090;11.498;2023-07-30T10:08:19;3.45;;;1.67;;
8353;SDS011;4656;48.090;11.498;2023-07-30T10:10:24;1.38;;;1.30;;
8353;SDS011;4656;48.090;11.498;2023-07-30T10:12:27;2.83;;;1.60;;
8353;SDS011;4656;48.090;11.498;2023-07-30T10:14:30;4.30;;;1.50;;
8353;SDS011;4656;48.090;11.498;2023-07-30T10:16:33;4.63;;;2.00;;
8353;SDS011;4656;48.090;11.498;2023-07-30T10:18:37;37.97;;;3.72;;
8353;SDS011;4656;48.090;11.498;2023-07-30T10:20:43;95.60;;;8.68;;
8353;SDS011;4656;48.090;11.498;2023-07-30T10:22:50;260.08;;;19.23;;
8353;SDS011;4656;48.090;11.498;2023-07-30T10:24:56;223.38;;;20.88;;
8353;SDS011;4656;48.090;11.498;2023-07-30T10:26:57;31.73;;;3.80;;
8353;SDS011;4656;48.090;11.498;2023-07-30T10:29:10;68.15;;;6.80;;
8353;SDS011;4656;48.090;11.498;2023-07-30T10:31:12;27.55;;;4.00;;
8353;SDS011;4656;48.090;11.498;2023-07-30T10:33:15;2.40;;;1.60;;
8353;SDS011;4656;48.090;11.498;2023-07-30T10:37:35;1.63;;;1.50;;
8353;SDS011;4656;48.090;11.498;2023-07-30T10:39:48;1.80;;;1.60;;
8353;SDS011;4656;48.090;11.498;2023-07-30T10:41:50;3.05;;;1.65;;
8353;SDS011;4656;48.090;11.498;2023-07-30T10:43:53;1.50;;;1.40;;
8353;SDS011;4656;48.090;11.498;2023-07-30T10:45:54;3.50;;;1.60;;
8353;SDS011;4656;48.090;11.498;2023-07-30T10:48:03;2.20;;;1.60;;
8353;SDS011;4656;48.090;11.498;2023-07-30T10:50:05;1.75;;;1.52;;
8353;SDS011;4656;48.090;11.498;2023-07-30T10:52:08;1.73;;;1.63;;
8353;SDS011;4656;48.090;11.498;2023-07-30T10:54:11;1.70;;;1.60;;
8353;SDS011;4656;48.090;11.498;2023-07-30T10:56:12;1.70;;;1.60;;
8353;SDS011;4656;48.090;11.498;2023-07-30T10:58:15;1.50;;;1.40;;
8353;SDS011;4656;48.090;11.498;2023-07-30T11:00:16;1.70;;;1.60;;
8353;SDS011;4656;48.090;11.498;2023-07-30T11:02:19;1.60;;;1.50;;
8353;SDS011;4656;48.090;11.498;2023-07-30T11:04:21;1.77;;;1.40;;
8353;SDS011;4656;48.090;11.498;2023-07-30T11:06:23;2.35;;;1.60;;
8353;SDS011;4656;48.090;11.498;2023-07-30T11:08:32;1.65;;;1.55;;
8353;SDS011;4656;48.090;11.498;2023-07-30T11:10:42;1.70;;;1.30;;
8353;SDS011;4656;48.090;11.498;2023-07-30T11:12:44;1.33;;;1.23;;
8353;SDS011;4656;48.090;11.498;2023-07-30T11:14:46;1.43;;;1.30;;
8353;SDS011;4656;48.090;11.498;2023-07-30T11:16:49;2.40;;;1.50;;
8353;SDS011;4656;48.090;11.498;2023-07-30T11:18:52;1.55;;;1.45;;
8353;SDS011;4656;48.090;11.498;2023-07-30T11:21:00;1.40;;;1.20;;
8353;SDS011;4656;48.090;11.498;2023-07-30T11:23:16;1.40;;;1.20;;
8353;SDS011;4656;48.090;11.498;2023-07-30T11:25:19;1.38;;;1.27;;
8353;SDS011;4656;48.090;11.498;2023-07-30T11:27:22;1.40;;;1.30;;
8353;SDS011;4656;48.090;11.498;2023-07-30T11:29:24;1.75;;;1.50;;
8353;SDS011;4656;48.090;11.498;2023-07-30T11:31:26;1.50;;;1.40;;
8353;SDS011;4656;48.090;11.498;2023-07-30T11:33:29;1.70;;;1.50;;
8353;SDS011;4656;48.090;11.498;2023-07-30T11:35:31;1.23;;;1.13;;
8353;SDS011;4656;48.090;11.498;2023-07-30T11:37:33;1.35;;;1.25;;
8353;SDS011;4656;48.090;11.498;2023-07-30T11:39:38;5.82;;;1.63;;
8353;SDS011;4656;48.090;11.498;2023-07-30T11:41:40;1.27;;;1.13;;
8353;SDS011;4656;48.090;11.498;2023-07-30T11:43:47;1.60;;;1.50;;
8353;SDS011;4656;48.090;11.498;2023-07-30T11:45:49;1.10;;;1.10;;
8353;SDS011;4656;48.090;11.498;2023-07-30T11:48:06;1.60;;;1.50;;
8353;SDS011;4656;48.090;11.498;2023-07-30T11:50:11;1.60;;;1.50;;
8353;SDS011;4656;48.090;11.498;2023-07-30T11:52:13;1.30;;;1.20;;
8353;SDS011;4656;48.090;11.498;2023-07-30T11:54:19;1.20;;;1.10;;
8353;SDS011;4656;48.090;11.498;2023-07-30T11:56:22;1.55;;;1.45;;
8353;SDS011;4656;48.090;11.498;2023-07-30T11:58:24;1.48;;;1.30;;
8353;SDS011;4656;48.090;11.498;2023-07-30T12:00:32;2.10;;;1.40;;
8353;SDS011;4656;48.090;11.498;2023-07-30T12:02:34;1.35;;;1.23;;
8353;SDS011;4656;48.090;11.498;2023-07-30T12:04:42;1.40;;;1.30;;
8353;SDS011;4656;48.090;11.498;2023-07-30T12:06:45;2.40;;;1.40;;
8353;SDS011;4656;48.090;11.498;2023-07-30T12:08:48;1.73;;;1.30;;
8353;SDS011;4656;48.090;11.498;2023-07-30T12:10:50;1.50;;;1.40;;
8353;SDS011;4656;48.090;11.498;2023-07-30T12:12:53;1.30;;;1.17;;
8353;SDS011;4656;48.090;11.498;2023-07-30T12:14:55;1.80;;;1.50;;
8353;SDS011;4656;48.090;11.498;2023-07-30T12:16:58;2.38;;;1.40;;
8353;SDS011;4656;48.090;11.498;2023-07-30T12:19:00;1.95;;;1.33;;
8353;SDS011;4656;48.090;11.498;2023-07-30T12:21:02;2.40;;;1.65;;
8353;SDS011;4656;48.090;11.498;2023-07-30T12:23:06;3.00;;;1.50;;
8353;SDS011;4656;48.090;11.498;2023-07-30T12:25:08;1.70;;;1.60;;
8353;SDS011;4656;48.090;11.498;2023-07-30T12:27:10;2.40;;;1.30;;
8353;SDS011;4656;48.090;11.498;2023-07-30T12:29:12;1.58;;;1.48;;
8353;SDS011;4656;48.090;11.498;2023-07-30T12:31:14;1.77;;;1.30;;
8353;SDS011;4656;48.090;11.498;2023-07-30T12:33:18;2.17;;;1.40;;